createdAt,value
2022-10-15T00:09:18.059Z,76.27
2022-10-15T00:14:22.004Z,76.25
2022-10-15T00:19:50.025Z,76.25
2022-10-15T00:30:06.549Z,76.77
2022-10-15T01:02:09.402Z,79.31
2022-10-15T01:07:06.858Z,79.17
2022-10-15T01:13:03.053Z,78.82
2022-10-15T01:18:02.824Z,78.89
2022-10-15T01:23:15.617Z,78.39
2022-10-15T01:28:29.170Z,78.55
2022-10-15T01:34:40.859Z,78.14
2022-10-15T01:39:41.293Z,78.34
2022-10-15T01:44:46.633Z,78.28
2022-10-15T01:49:53.790Z,78.59
2022-10-15T01:54:58.257Z,78.84
2022-10-15T02:00:30.671Z,79.01
2022-10-15T02:05:40.130Z,78.72
2022-10-15T02:10:48.079Z,79.01
2022-10-15T02:22:50.010Z,79.05
2022-10-15T02:27:50.304Z,78.88
2022-10-15T02:32:50.229Z,79.16
2022-10-15T02:38:30.989Z,79.37
2022-10-15T02:51:00.502Z,79.54
2022-10-15T02:56:00.114Z,79.26
2022-10-15T03:00:54.106Z,79.16
2022-10-15T03:06:13.319Z,78.98
2022-10-15T03:11:14.823Z,79.17
2022-10-15T03:16:09.821Z,79.27
2022-10-15T03:21:05.334Z,79.23
2022-10-15T03:25:59.805Z,79.37
2022-10-15T03:32:05.465Z,78.93
2022-10-15T03:37:06.332Z,79.39
2022-10-15T03:42:01.567Z,79.30
2022-10-15T03:47:03.238Z,79.26
2022-10-15T03:52:08.099Z,79.47
2022-10-15T03:57:02.987Z,79.43
2022-10-15T04:02:03.281Z,79.23
2022-10-15T04:13:56.290Z,78.99
2022-10-15T04:19:07.360Z,78.94
2022-10-15T04:24:35.834Z,78.17
2022-10-15T04:41:44.042Z,78.68
2022-10-15T04:47:34.463Z,78.72
2022-10-15T04:52:41.504Z,78.81
2022-10-15T05:04:24.143Z,78.40
2022-10-15T05:09:23.570Z,78.39
2022-10-15T05:14:20.447Z,78.47
2022-10-15T05:20:56.882Z,78.11
2022-10-15T05:26:48.359Z,78.13
2022-10-15T05:31:42.347Z,77.96
2022-10-15T05:36:45.802Z,77.43
2022-10-15T05:41:43.028Z,77.24
2022-10-15T05:46:36.483Z,76.31
2022-10-15T05:51:30.198Z,76.05
2022-10-15T05:56:29.462Z,75.98
2022-10-15T06:01:24.131Z,76.30
2022-10-15T06:06:21.703Z,76.15
2022-10-15T06:11:14.873Z,75.68
2022-10-15T06:16:08.480Z,75.31
2022-10-15T06:21:03.196Z,75.33
2022-10-15T06:25:56.470Z,75.02
2022-10-15T06:30:49.645Z,74.64
2022-10-15T06:35:42.773Z,74.27
2022-10-15T06:40:38.805Z,73.34
2022-10-15T06:45:31.833Z,72.57
2022-10-15T06:50:26.888Z,71.70
2022-10-15T06:55:19.994Z,70.98
2022-10-15T07:00:15.536Z,70.70
2022-10-15T07:05:09.934Z,69.70
2022-10-15T07:10:03.497Z,67.22
2022-10-15T07:14:57.272Z,66.38
2022-10-15T07:19:51.831Z,65.72
2022-10-15T07:24:44.976Z,66.23
2022-10-15T07:29:38.296Z,65.99
2022-10-15T07:34:31.763Z,65.74
2022-10-15T07:39:26.465Z,65.68
2022-10-15T07:44:19.699Z,64.83
2022-10-15T07:49:12.880Z,63.94
2022-10-15T07:54:06.112Z,64.23
2022-10-15T07:59:00.840Z,62.97
2022-10-15T08:03:54.000Z,61.45
2022-10-15T08:08:47.897Z,60.87
2022-10-15T08:13:42.515Z,60.24
2022-10-15T08:18:38.007Z,60.14
2022-10-15T08:23:31.227Z,60.84
2022-10-15T08:28:27.080Z,61.12
2022-10-15T08:33:20.261Z,61.92
2022-10-15T08:38:19.760Z,61.57
2022-10-15T08:43:22.038Z,60.63
2022-10-15T08:48:21.268Z,60.52
2022-10-15T08:53:20.227Z,58.66
2022-10-15T08:58:16.679Z,56.53
2022-10-15T09:03:25.226Z,55.03
2022-10-15T09:08:28.002Z,54.72
2022-10-15T09:13:28.112Z,55.51
2022-10-15T09:18:24.957Z,56.40
2022-10-15T09:23:22.411Z,57.23
2022-10-15T09:28:19.757Z,56.54
2022-10-15T09:33:20.649Z,54.86
2022-10-15T09:38:35.297Z,54.11
2022-10-15T09:43:35.435Z,53.16
2022-10-15T09:48:29.450Z,51.47
2022-10-15T09:53:37.749Z,52.27
2022-10-15T09:58:38.734Z,51.60
2022-10-15T10:03:34.260Z,52.22
2022-10-15T10:08:33.387Z,52.98
2022-10-15T10:13:29.686Z,53.44
2022-10-15T10:18:29.194Z,53.19
2022-10-15T10:23:24.650Z,52.39
2022-10-15T10:28:26.340Z,52.39
2022-10-15T10:33:26.770Z,52.39
2022-10-15T10:38:22.522Z,52.66
2022-10-15T10:43:23.073Z,53.00
2022-10-15T10:48:21.555Z,52.43
2022-10-15T10:53:25.972Z,53.45
2022-10-15T10:58:26.285Z,52.54
2022-10-15T11:03:34.712Z,51.02
2022-10-15T11:08:34.067Z,50.64
2022-10-15T11:13:41.833Z,50.29
2022-10-15T11:18:54.566Z,49.97
2022-10-15T11:24:06.742Z,49.28
2022-10-15T11:29:14.188Z,49.14
2022-10-15T11:34:19.346Z,48.79
2022-10-15T11:39:46.305Z,47.32
2022-10-15T11:44:57.360Z,47.44
2022-10-15T11:50:05.573Z,47.20
2022-10-15T11:55:05.259Z,47.21
2022-10-15T12:00:04.200Z,46.88
2022-10-15T12:05:08.558Z,46.42
2022-10-15T12:10:07.623Z,45.31
2022-10-15T12:15:17.052Z,46.23
2022-10-15T12:20:17.097Z,44.76
2022-10-15T12:25:41.713Z,44.14
2022-10-15T12:30:40.162Z,44.06
2022-10-15T12:35:38.761Z,44.82
2022-10-15T12:40:33.507Z,45.15
2022-10-15T12:45:37.361Z,45.14
2022-10-15T12:50:37.393Z,44.92
2022-10-15T12:55:33.913Z,44.93
2022-10-15T13:00:38.866Z,44.49
2022-10-15T13:05:35.716Z,43.44
2022-10-15T13:10:31.145Z,43.93
2022-10-15T13:15:27.130Z,43.90
2022-10-15T13:20:37.036Z,44.83
2022-10-15T13:25:31.694Z,45.75
2022-10-15T13:30:25.117Z,45.98
2022-10-15T13:35:21.980Z,46.12
2022-10-15T13:40:21.928Z,46.35
2022-10-15T13:45:20.299Z,46.34
2022-10-15T13:50:25.149Z,45.48
2022-10-15T13:55:25.493Z,45.43
2022-10-15T14:00:29.018Z,45.63
2022-10-15T14:05:25.250Z,45.92
2022-10-15T14:10:46.456Z,46.34
2022-10-15T14:16:00.418Z,45.70
2022-10-15T14:20:56.683Z,45.83
2022-10-15T14:25:55.631Z,46.16
2022-10-15T14:31:38.376Z,46.11
2022-10-15T14:36:53.449Z,45.68
2022-10-15T14:43:26.348Z,45.01
2022-10-15T16:06:21.456Z,49.55
2022-10-15T16:11:40.084Z,50.61
2022-10-15T16:16:54.138Z,51.72
2022-10-15T16:21:55.195Z,52.74
2022-10-15T16:27:26.783Z,53.76
2022-10-15T16:32:56.127Z,54.53
2022-10-15T16:38:41.596Z,55.40
2022-10-15T16:43:58.792Z,55.15
2022-10-15T16:49:05.272Z,55.28
2022-10-15T16:54:26.757Z,54.44
2022-10-15T16:59:24.431Z,54.48
2022-10-15T17:04:31.258Z,54.57
2022-10-15T17:09:25.620Z,54.91
2022-10-15T17:14:43.289Z,54.16
2022-10-15T17:19:43.019Z,54.42
2022-10-15T17:25:28.213Z,54.25
2022-10-15T17:31:54.879Z,54.39
2022-10-15T18:03:56.173Z,57.33
2022-10-15T18:36:39.280Z,59.51
2022-10-15T19:37:07.912Z,61.50
2022-10-15T19:42:46.789Z,62.26
2022-10-15T19:47:51.601Z,62.11
2022-10-15T19:53:03.845Z,62.09
2022-10-15T19:58:23.240Z,62.31
2022-10-15T20:08:38.051Z,62.47
2022-10-15T20:19:44.651Z,63.29
2022-10-15T20:25:19.322Z,63.13
2022-10-15T20:30:16.874Z,63.65
2022-10-15T20:35:11.382Z,63.76
2022-10-15T20:40:15.024Z,63.71
2022-10-15T20:57:47.965Z,66.13
2022-10-15T21:02:52.076Z,67.12
2022-10-15T21:08:27.249Z,67.54
2022-10-15T21:13:29.497Z,68.48
2022-10-15T21:18:30.067Z,69.17
2022-10-15T21:23:24.955Z,69.47
2022-10-15T21:28:20.500Z,69.93
2022-10-15T21:33:13.964Z,71.12
2022-10-15T21:38:10.026Z,71.97
2022-10-15T21:43:10.283Z,72.74
2022-10-15T21:48:07.029Z,73.13
2022-10-15T21:53:03.962Z,73.75
2022-10-15T21:58:02.443Z,74.32
2022-10-15T22:03:12.335Z,74.10
2022-10-15T22:08:19.249Z,75.39
2022-10-15T22:13:14.523Z,74.96
2022-10-15T22:18:30.658Z,74.17
2022-10-15T22:24:01.211Z,74.48
2022-10-15T23:03:46.569Z,78.40
2022-10-15T23:08:45.490Z,79.52
2022-10-15T23:21:16.074Z,79.62
